首页
METAR-TAF:

METAR-TAF

机场 :

南安普敦機場

南安普敦, 英格兰

纬度: 50-54N, 经度: 001-24W, 海拔: 9米

当前天气观测

该预报发布于4小时和39分钟前的15:50 UTC
风速15节,风向北转西北,有时为29节阵风,在西转西北之间变化
温度 14°C
湿度 47%
气压 1012 hPa
能见度10公里或以上
少量云层高于4600英尺

METAR: EGHI 261550Z 33015G29KT 300V010 9999 FEW046 14/03 Q1012

时间: 21:29 (20:29 UTC)

预报

该预报发布于6小时和33分钟前的13:56 UTC
预报有效从26日的 15点(UTC)到 26日的 22点(UTC)
风速12节,风向西北
能见度10公里或以上
少量云层高于4500英尺
短暂存在
从 26日的 15点(UTC)到 26日的 22点(UTC)
风速15节,风向北转西北,有时为25节阵风

TAF: EGHI 261356Z 2615/2622 32012KT 9999 FEW045 TEMPO 2615/2622 33015G25KT

超过4000个机场的气象观测和天气预报(METAR&TAF报告)。

可查询的气象台以黄色和红色小点在地图上表示。

将鼠标移到小点上方,可查看气象台名称。

然后点击查看天气观测和预报。

如需切换地图:点击带黑十字的绿色按钮放大地图;点击带横线的绿色按钮缩小地图;或者点击绿色箭头查看邻近地区的地图。


METAR-TAF: